Auberry, California
Current Conditions -  °F | °C
As of 3:53 AM on Monday 22 Dec 2014 (Local Time) from KFAT Reporting Station
Haze Haze  
Wind Chill: 55°   Ceiling: 1200
Heat Index: 55°   Visibility: 2.5mi
Dew Point: 53°   Wind: 3mph
Humidity: 93%   Direction: 80°E
Pressure: 30.25"   Gusts: NA
Location:  37.08°N, 119.49°W
Report Text: KFAT 221153Z 08003KT 2 1/2SM BR SCT005 OVC012 13/12 A3025 RMK AO2 SLP242 T01280117 10133 20122 58004
Loading
Personal Weather Stations






























Interactive Weather Map New forecast layout! Learn more

10-Day Weather Forecast

Advertisements
Track Severe Weather on mobile